createdAt,value
2023-12-16T01:04:01.322Z,19.13
2023-12-16T01:06:29.902Z,15.60
2023-12-16T01:08:58.441Z,15.73
2023-12-16T01:11:27.223Z,17.93
2023-12-16T01:13:55.872Z,17.47
2023-12-16T01:16:24.941Z,16.83
2023-12-16T01:18:54.512Z,15.70
2023-12-16T01:21:24.635Z,16.87
2023-12-16T01:23:53.245Z,18.20
2023-12-16T01:26:21.612Z,17.33
2023-12-16T01:28:50.297Z,19.57
2023-12-16T01:31:19.997Z,16.40
2023-12-16T01:33:48.876Z,16.63
2023-12-16T01:36:16.111Z,16.77
2023-12-16T01:38:46.127Z,16.70
2023-12-16T01:41:14.493Z,16.50
2023-12-16T01:43:43.042Z,16.37
2023-12-16T01:46:12.080Z,16.70
2023-12-16T01:48:41.642Z,17.63
2023-12-16T01:51:10.791Z,16.13
2023-12-16T01:53:41.382Z,16.00
2023-12-16T01:56:11.929Z,18.23
2023-12-16T01:58:43.175Z,16.67
2023-12-16T02:01:11.821Z,16.30
2023-12-16T02:03:40.786Z,15.17
2023-12-16T02:06:09.744Z,17.80
2023-12-16T02:08:38.909Z,15.87
2023-12-16T02:11:11.469Z,16.90
2023-12-16T02:13:43.556Z,15.67
2023-12-16T02:16:12.068Z,16.50
2023-12-16T02:18:40.843Z,15.80
2023-12-16T02:21:09.184Z,16.00
2023-12-16T02:23:41.050Z,15.43
2023-12-16T02:26:09.756Z,15.70
2023-12-16T02:28:38.440Z,16.10
2023-12-16T02:31:08.080Z,15.40
2023-12-16T02:33:37.363Z,15.60
2023-12-16T02:36:06.673Z,15.60
2023-12-16T02:38:35.449Z,15.30
2023-12-16T02:41:05.566Z,15.83
2023-12-16T02:43:35.261Z,15.30
2023-12-16T02:46:03.694Z,15.30
2023-12-16T02:48:32.926Z,16.57
2023-12-16T02:51:01.614Z,15.30
2023-12-16T02:53:29.875Z,15.10
2023-12-16T02:55:58.236Z,15.33
2023-12-16T02:58:28.639Z,15.27
2023-12-16T03:00:57.090Z,14.90
2023-12-16T03:03:25.775Z,14.90
2023-12-16T03:05:54.272Z,15.80
2023-12-16T03:08:25.724Z,14.80
2023-12-16T03:10:55.952Z,15.10
2023-12-16T03:13:24.764Z,15.13
2023-12-16T03:15:54.776Z,15.30
2023-12-16T03:18:23.282Z,15.00
2023-12-16T03:20:52.120Z,15.77
2023-12-16T03:23:20.422Z,15.03
2023-12-16T03:25:48.842Z,15.20
2023-12-16T03:28:17.456Z,14.57
2023-12-16T03:30:48.600Z,15.63
2023-12-16T03:33:18.584Z,15.37
2023-12-16T03:35:47.167Z,14.70
2023-12-16T03:38:15.826Z,14.87
2023-12-16T03:40:44.710Z,17.00
2023-12-16T03:43:13.980Z,16.13
2023-12-16T03:45:42.576Z,15.20
2023-12-16T03:48:11.806Z,15.00
2023-12-16T03:50:41.819Z,15.10
2023-12-16T03:53:10.144Z,15.30
2023-12-16T03:55:38.714Z,15.20
2023-12-16T03:58:07.406Z,15.30
2023-12-16T04:00:38.387Z,15.20
2023-12-16T04:03:06.969Z,15.10
2023-12-16T04:05:35.191Z,15.30
2023-12-16T04:08:05.760Z,15.50
2023-12-16T04:10:34.035Z,15.30
2023-12-16T04:13:02.588Z,15.40
2023-12-16T04:15:35.139Z,15.17
2023-12-16T04:18:04.188Z,14.90
2023-12-16T04:20:32.445Z,15.60
2023-12-16T04:23:00.983Z,16.40
2023-12-16T04:25:31.477Z,15.93
2023-12-16T04:28:00.260Z,15.27
2023-12-16T04:30:29.296Z,17.17
2023-12-16T04:32:58.573Z,16.17
2023-12-16T04:35:27.052Z,15.00
2023-12-16T04:37:55.629Z,15.17
2023-12-16T04:40:24.255Z,14.80
2023-12-16T04:42:56.413Z,14.80
2023-12-16T04:45:24.977Z,14.80
2023-12-16T04:47:53.569Z,14.53
2023-12-16T04:50:22.437Z,14.80
2023-12-16T04:52:51.272Z,15.97
2023-12-16T04:55:19.944Z,14.90
2023-12-16T04:57:48.516Z,14.80
2023-12-16T05:00:19.108Z,14.67
2023-12-16T05:02:47.772Z,14.90
2023-12-16T05:05:16.162Z,14.40
2023-12-16T05:07:44.550Z,14.50
2023-12-16T05:10:12.875Z,15.47
2023-12-16T05:12:42.594Z,14.37
2023-12-16T05:15:13.286Z,15.63
2023-12-16T05:17:42.148Z,14.67
2023-12-16T05:20:11.429Z,14.60
2023-12-16T05:22:39.984Z,15.07
2023-12-16T05:25:09.661Z,14.57
2023-12-16T05:27:38.549Z,19.87
2023-12-16T05:30:10.435Z,14.97
2023-12-16T05:32:39.167Z,15.00
2023-12-16T05:35:10.340Z,15.47
2023-12-16T05:37:39.215Z,15.03
2023-12-16T05:40:09.019Z,14.33
2023-12-16T05:42:37.864Z,15.87
2023-12-16T05:45:07.264Z,15.10
2023-12-16T05:47:35.711Z,14.50
2023-12-16T05:50:04.705Z,14.40
2023-12-16T05:52:34.805Z,14.40
2023-12-16T05:55:03.874Z,14.23
2023-12-16T05:57:32.565Z,14.33
2023-12-16T06:00:00.855Z,15.10
2023-12-16T06:02:29.493Z,15.30
2023-12-16T06:04:58.190Z,15.87
2023-12-16T06:07:26.862Z,15.83
2023-12-16T06:09:56.870Z,17.23
2023-12-16T06:12:25.086Z,17.17
2023-12-16T06:14:55.672Z,16.60
2023-12-16T06:17:25.476Z,15.60
2023-12-16T06:19:54.067Z,15.40
2023-12-16T06:22:22.452Z,15.20
2023-12-16T06:24:50.902Z,16.07
2023-12-16T06:27:20.451Z,15.70
2023-12-16T06:29:49.264Z,15.20
2023-12-16T06:32:17.481Z,14.40
2023-12-16T06:34:47.475Z,14.90
2023-12-16T06:37:16.335Z,14.30
2023-12-16T06:39:45.010Z,14.80
2023-12-16T06:42:13.283Z,15.47
2023-12-16T06:44:45.069Z,15.70
2023-12-16T07:29:07.110Z,16.47
2023-12-16T07:31:35.856Z,15.67
2023-12-16T09:58:33.363Z,16.37
2023-12-16T10:15:55.482Z,15.90
2023-12-16T10:18:24.574Z,15.67
2023-12-16T10:23:55.853Z,16.17
2023-12-16T10:26:24.565Z,17.43
2023-12-16T10:28:55.489Z,16.43
2023-12-16T10:31:26.200Z,15.97
2023-12-16T10:33:55.214Z,16.60
2023-12-16T10:36:23.710Z,15.80
2023-12-16T10:38:52.882Z,15.80
2023-12-16T10:41:23.084Z,15.40
2023-12-16T10:43:54.196Z,15.10
2023-12-16T10:46:29.094Z,15.63
2023-12-16T10:49:01.469Z,14.43
2023-12-16T10:51:31.961Z,15.50
2023-12-16T10:54:07.704Z,15.77
2023-12-16T10:56:41.459Z,15.30
2023-12-16T10:59:20.659Z,15.67
2023-12-16T11:01:58.916Z,14.37
2023-12-16T11:04:30.814Z,16.67
2023-12-16T11:07:07.153Z,16.20
2023-12-16T11:09:36.564Z,16.10
2023-12-16T11:12:07.354Z,19.20
2023-12-16T11:14:38.189Z,16.33
2023-12-16T11:17:13.965Z,15.80
2023-12-16T11:19:47.485Z,15.53
2023-12-16T11:22:17.910Z,21.33
2023-12-16T11:24:47.005Z,17.80
2023-12-16T11:27:18.085Z,17.87
2023-12-16T11:29:46.817Z,17.63
2023-12-16T11:32:34.844Z,16.93
2023-12-16T11:35:18.215Z,16.93
2023-12-16T11:37:47.725Z,17.10
2023-12-16T11:40:43.671Z,16.97
2023-12-16T11:43:13.272Z,17.53
2023-12-16T11:45:44.350Z,17.23
2023-12-16T11:48:16.851Z,17.53
2023-12-16T11:50:48.102Z,17.40
2023-12-16T11:53:20.426Z,17.70
2023-12-16T11:55:49.128Z,19.57
2023-12-16T11:58:20.392Z,18.93
2023-12-16T12:00:50.415Z,16.60
2023-12-16T12:07:14.837Z,16.77
2023-12-16T12:42:11.363Z,17.63
2023-12-16T13:38:03.443Z,17.60
2023-12-16T13:40:35.797Z,17.80
2023-12-16T13:43:06.582Z,18.30
2023-12-16T13:45:50.528Z,18.67
2023-12-16T13:48:20.149Z,18.33
2023-12-16T13:50:49.009Z,17.27
2023-12-16T13:53:18.101Z,18.00
2023-12-16T13:55:48.103Z,19.10
2023-12-16T13:58:18.559Z,22.63
2023-12-16T14:00:47.018Z,18.00
2023-12-16T14:03:15.587Z,17.97
2023-12-16T14:05:44.449Z,16.77
2023-12-16T14:08:13.692Z,17.33
2023-12-16T14:10:42.334Z,16.80
2023-12-16T14:13:12.338Z,17.40
2023-12-16T14:15:40.823Z,17.93
2023-12-16T14:18:09.417Z,16.70
2023-12-16T14:20:37.839Z,16.80
2023-12-16T14:23:06.337Z,15.80
2023-12-16T14:25:36.399Z,16.20
2023-12-16T14:28:04.994Z,16.40
2023-12-16T14:30:35.077Z,17.20
2023-12-16T14:33:04.281Z,17.00
2023-12-16T14:35:34.858Z,16.20
2023-12-16T14:38:07.963Z,16.23
2023-12-16T14:40:36.917Z,16.07
2023-12-16T14:47:38.257Z,15.70
2023-12-16T14:50:07.477Z,20.60
2023-12-16T14:52:35.962Z,20.80
2023-12-16T14:55:07.695Z,22.13
2023-12-16T14:57:53.596Z,23.37
2023-12-16T15:00:45.758Z,22.50
2023-12-16T15:04:23.808Z,21.20
2023-12-16T15:07:17.030Z,21.47
2023-12-16T15:09:45.645Z,21.83
2023-12-16T15:12:14.195Z,20.07
2023-12-16T15:14:42.945Z,20.40
2023-12-16T15:17:12.152Z,15.50
2023-12-16T15:19:43.585Z,17.43
2023-12-16T15:22:13.758Z,15.73
2023-12-16T15:24:45.193Z,16.00
2023-12-16T15:27:20.065Z,15.80
2023-12-16T15:29:51.374Z,15.70
2023-12-16T15:32:27.734Z,15.70
2023-12-16T15:35:00.856Z,15.83
2023-12-16T15:37:31.096Z,15.53
2023-12-16T15:40:03.015Z,15.50
2023-12-16T16:32:31.752Z,15.93
2023-12-16T16:40:08.748Z,15.13
2023-12-16T16:56:04.979Z,15.80
2023-12-16T17:06:12.541Z,17.83
2023-12-16T17:08:59.400Z,16.10
2023-12-16T17:11:31.465Z,16.07
2023-12-16T17:14:16.671Z,15.70
2023-12-16T17:16:57.027Z,16.17
2023-12-16T17:19:25.943Z,16.60
2023-12-16T17:21:58.745Z,16.50
2023-12-16T17:24:30.323Z,16.23
2023-12-16T17:27:10.551Z,16.90
2023-12-16T18:50:31.059Z,17.00
2023-12-16T18:52:59.463Z,16.60
2023-12-16T18:55:28.017Z,16.30
2023-12-16T18:57:56.909Z,17.00
2023-12-16T19:00:27.369Z,16.50
2023-12-16T19:02:56.850Z,15.70
2023-12-16T19:05:26.877Z,17.20
2023-12-16T19:07:55.245Z,16.80
2023-12-16T19:10:25.118Z,16.97
2023-12-16T19:12:53.581Z,16.40
2023-12-16T19:15:30.610Z,16.37
2023-12-16T19:34:16.088Z,21.53
2023-12-16T19:36:45.786Z,16.80
2023-12-16T19:49:09.363Z,16.83
2023-12-16T19:51:43.231Z,16.00
2023-12-16T20:29:03.731Z,16.10
2023-12-16T20:31:43.076Z,18.43
2023-12-16T20:47:50.421Z,15.50
2023-12-16T21:15:30.634Z,15.60
2023-12-16T21:21:38.087Z,15.27
2023-12-16T21:24:28.653Z,15.30
2023-12-16T21:27:19.390Z,14.43
2023-12-16T21:30:23.684Z,14.80
2023-12-16T21:33:22.296Z,13.40
2023-12-16T21:36:01.452Z,15.63
2023-12-16T21:38:33.120Z,14.90
2023-12-16T21:41:35.018Z,14.10
2023-12-16T21:44:16.303Z,15.00
2023-12-16T21:46:48.534Z,14.80
2023-12-16T21:49:54.381Z,14.70
2023-12-16T21:52:36.993Z,15.30
2023-12-16T21:55:16.557Z,15.20
2023-12-16T21:57:56.647Z,15.20
2023-12-16T22:00:41.870Z,14.73
2023-12-16T22:03:21.146Z,15.10
2023-12-16T22:05:59.704Z,15.30
2023-12-16T22:08:46.183Z,16.60
2023-12-16T22:11:21.900Z,17.07
2023-12-16T22:14:00.352Z,15.90
2023-12-16T22:16:31.616Z,14.00
2023-12-16T22:19:11.423Z,14.33
2023-12-16T22:21:53.325Z,14.07
2023-12-16T22:24:24.376Z,14.57
2023-12-16T22:26:59.008Z,14.43
2023-12-16T22:29:41.211Z,14.50
2023-12-16T22:32:11.407Z,15.23
2023-12-16T22:34:41.341Z,15.43
2023-12-16T22:37:20.785Z,14.40
2023-12-16T22:39:52.399Z,15.50
2023-12-16T22:42:23.499Z,14.70
2023-12-16T22:44:51.939Z,14.70
2023-12-16T22:47:23.623Z,18.33
2023-12-16T22:49:52.310Z,19.83
2023-12-16T22:52:25.696Z,19.03
2023-12-16T22:54:54.089Z,18.73
2023-12-16T22:57:27.935Z,21.40
2023-12-16T23:00:00.015Z,19.83
2023-12-16T23:02:30.278Z,18.23
2023-12-16T23:05:02.083Z,20.63
2023-12-16T23:07:32.029Z,20.47
2023-12-16T23:10:04.436Z,20.00
2023-12-16T23:12:34.661Z,20.87
2023-12-16T23:15:03.085Z,20.63
2023-12-16T23:17:31.885Z,20.00
2023-12-16T23:20:00.629Z,19.33
2023-12-16T23:22:29.119Z,20.80
2023-12-16T23:24:58.912Z,19.50
2023-12-16T23:27:31.961Z,20.30
2023-12-16T23:30:00.661Z,19.50
2023-12-16T23:32:32.066Z,18.60
2023-12-16T23:35:00.758Z,18.93
2023-12-16T23:37:29.075Z,18.97
2023-12-16T23:52:44.417Z,19.00
2023-12-16T23:55:12.790Z,19.27
2023-12-16T23:57:43.419Z,18.40
